Time;durP1;ratioP1;P1;durP2;ratioP2;P2;SDS_P1;SDS_P2;PMS_P1;PMS_P2;Temp;Humidity;BMP_temperature;BMP_pressure;BME280_temperature;BME280_humidity;BME280_pressure;Samples;Min_cycle;Max_cycle;Signal;HPM_P1;HPM_P2
2022/02/15 00:01:13;;;;;;;1.10;1.10;;;;;;;2.90;62.45;100033.15;103466;1276;138785;-68
2022/02/15 00:03:41;;;;;;;1.20;1.20;;;;;;;2.91;62.64;100036.48;103587;1276;108492;-66
2022/02/15 00:06:09;;;;;;;1.30;1.30;;;;;;;2.86;62.44;100037.36;103527;1276;95539;-65
2022/02/15 00:08:38;;;;;;;1.40;1.40;;;;;;;2.81;62.69;100038.41;103700;1276;138444;-68
2022/02/15 00:11:06;;;;;;;1.20;1.20;;;;;;;2.81;62.71;100038.08;103585;1276;108015;-66
2022/02/15 00:13:33;;;;;;;1.40;1.40;;;;;;;2.81;62.88;100040.89;103485;1276;138858;-67
2022/02/15 00:16:01;;;;;;;1.20;1.20;;;;;;;2.82;62.86;100034.38;103529;1276;108887;-67
2022/02/15 00:18:29;;;;;;;1.30;1.30;;;;;;;2.81;62.82;100034.38;103537;1276;95698;-67
2022/02/15 00:20:57;;;;;;;1.20;1.20;;;;;;;2.73;63.00;100030.55;103469;1276;138530;-67
2022/02/15 00:23:25;;;;;;;1.30;1.30;;;;;;;2.72;63.19;100029.13;103589;1276;109797;-68
2022/02/15 00:25:53;;;;;;;1.20;1.20;;;;;;;2.69;63.25;100025.63;103486;1276;138328;-68
2022/02/15 00:28:21;;;;;;;1.30;1.30;;;;;;;2.65;63.60;100024.92;103559;1276;108894;-67
2022/02/15 00:30:50;;;;;;;1.30;1.30;;;;;;;2.63;63.47;100024.93;104011;1276;95288;-68
2022/02/15 00:33:18;;;;;;;1.20;1.20;;;;;;;2.64;63.39;100025.10;103426;1276;138382;-67
2022/02/15 00:35:46;;;;;;;1.20;1.20;;;;;;;2.70;63.38;100023.17;103550;1276;109885;-66
2022/02/15 00:38:15;;;;;;;1.50;1.50;;;;;;;2.68;63.32;100019.66;103528;1276;138437;-67
2022/02/15 00:40:43;;;;;;;1.30;1.30;;;;;;;2.64;63.41;100019.31;103629;1276;108750;-68
2022/02/15 00:43:11;;;;;;;1.20;1.20;;;;;;;2.59;63.60;100015.98;103453;1276;138194;-67
2022/02/15 00:45:39;;;;;;;1.40;1.40;;;;;;;2.54;63.84;100017.73;103581;1276;95954;-67
2022/02/15 00:48:07;;;;;;;1.20;1.20;;;;;;;2.53;63.85;100016.67;103608;1276;109740;-67
2022/02/15 00:50:35;;;;;;;1.30;1.30;;;;;;;2.52;63.71;100018.09;103490;1276;141331;-66
2022/02/15 00:53:03;;;;;;;1.30;1.30;;;;;;;2.51;63.84;100011.42;103600;1276;108609;-67
2022/02/15 00:55:31;;;;;;;1.20;1.20;;;;;;;2.50;63.97;100013.00;103467;1276;138210;-67
2022/02/15 00:57:58;;;;;;;1.20;1.20;;;;;;;2.48;63.88;100008.63;103573;1276;95457;-66
2022/02/15 01:00:26;;;;;;;1.20;1.20;;;;;;;2.50;63.93;100004.23;103590;1276;108960;-67
2022/02/15 01:02:54;;;;;;;1.30;1.30;;;;;;;2.51;64.02;100004.23;103482;1276;139266;-67
2022/02/15 01:05:22;;;;;;;1.20;1.20;;;;;;;2.52;63.80;100004.60;103535;1276;108836;-66
2022/02/15 01:07:50;;;;;;;1.20;1.20;;;;;;;2.47;64.15;100001.09;103503;1276;138490;-67
2022/02/15 01:10:20;;;;;;;1.20;1.20;;;;;;;2.48;63.89;100002.69;103722;1276;95303;-66
2022/02/15 01:12:49;;;;;;;1.20;1.20;;;;;;;2.47;64.19;99998.11;103881;1276;110150;-66
2022/02/15 01:15:18;;;;;;;1.20;1.20;;;;;;;2.46;64.04;99993.38;103457;1276;138823;-67
2022/02/15 01:17:46;;;;;;;1.20;1.20;;;;;;;2.43;63.88;99992.68;103607;1276;108807;-66
2022/02/15 01:20:14;;;;;;;1.40;1.40;;;;;;;2.40;64.36;99990.22;103536;1276;138094;-67
2022/02/15 01:22:42;;;;;;;1.30;1.30;;;;;;;2.41;64.29;99989.17;103628;1274;96317;-66
2022/02/15 01:25:11;;;;;;;1.20;1.20;;;;;;;2.42;64.22;99986.89;103521;1276;138092;-67
2022/02/15 01:27:39;;;;;;;1.30;1.30;;;;;;;2.39;64.60;99986.19;103837;1276;100091;-66
2022/02/15 01:30:08;;;;;;;1.40;1.40;;;;;;;2.34;64.64;99985.66;103651;1276;108838;-67
2022/02/15 01:32:36;;;;;;;1.40;1.40;;;;;;;2.30;64.68;99983.02;103945;1275;138922;-66
2022/02/15 01:35:04;;;;;;;1.30;1.30;;;;;;;2.33;64.47;99983.21;103661;1276;95820;-67
2022/02/15 01:37:32;;;;;;;1.30;1.30;;;;;;;2.33;64.47;99978.48;103520;1275;139324;-67
2022/02/15 01:40:00;;;;;;;1.30;1.30;;;;;;;2.31;64.87;99977.95;103575;1276;99611;-66
2022/02/15 01:42:28;;;;;;;1.20;1.20;;;;;;;2.24;65.08;99974.45;103623;1276;108817;-65
2022/02/15 01:44:56;;;;;;;1.40;1.40;;;;;;;2.16;65.27;99977.60;103475;1276;139108;-67
2022/02/15 01:47:27;;;;;;;1.30;1.30;;;;;;;2.13;65.11;99976.19;103595;1276;95291;-67
2022/02/15 01:49:57;;;;;;;1.40;1.40;;;;;;;2.10;65.23;99974.61;103554;1276;138587;-67
2022/02/15 01:52:26;;;;;;;1.30;1.30;;;;;;;2.07;65.32;99973.55;103727;1276;99422;-67
2022/02/15 01:54:57;;;;;;;1.40;1.40;;;;;;;1.98;65.93;99970.21;103557;1276;108830;-68
2022/02/15 01:57:26;;;;;;;1.30;1.30;;;;;;;2.03;65.79;99971.27;103636;1276;141384;-67
2022/02/15 02:00:18;;;;;;;1.30;1.30;;;;;;;2.08;65.63;99965.16;103562;1276;95486;-66
2022/02/15 02:02:51;;;;;;;1.40;1.40;;;;;;;2.09;65.60;99959.20;103691;1276;137657;-67
2022/02/15 02:08:09;;;;;;;1.30;1.30;;;;;;;2.13;65.44;99950.27;103490;1276;138113;-67
2022/02/15 02:10:41;;;;;;;1.20;1.20;;;;;;;2.16;65.62;99948.70;103694;1276;95296;-67
2022/02/15 02:13:15;;;;;;;1.30;1.30;;;;;;;2.15;65.40;99951.16;103498;1276;137702;-68
2022/02/15 02:15:44;;;;;;;1.30;1.30;;;;;;;2.12;65.56;99950.09;103583;1276;109640;-66
2022/02/15 02:18:32;;;;;;;1.40;1.40;;;;;;;2.13;65.68;99946.92;103548;1276;98755;-67
2022/02/15 02:21:03;;;;;;;1.30;1.30;;;;;;;2.10;65.83;99945.19;103452;1276;138369;-67
2022/02/15 02:23:32;;;;;;;1.40;1.40;;;;;;;2.05;65.86;99943.78;103690;1276;95280;-67
2022/02/15 02:26:11;;;;;;;1.40;1.40;;;;;;;2.01;65.86;99941.85;103422;1276;138268;-68
2022/02/15 02:28:40;;;;;;;1.40;1.40;;;;;;;1.96;66.22;99945.86;103751;1276;110042;-67
2022/02/15 02:31:07;;;;;;;1.30;1.30;;;;;;;1.95;66.28;99944.29;103488;1276;138594;-67
2022/02/15 02:33:41;;;;;;;1.40;1.40;;;;;;;1.97;66.41;99951.13;103540;1276;108514;-68
2022/02/15 02:36:10;;;;;;;1.50;1.50;;;;;;;1.96;66.20;99950.41;103733;1276;95532;-67
2022/02/15 02:38:38;;;;;;;1.40;1.40;;;;;;;1.92;66.66;99952.35;103469;1276;138003;-67
2022/02/15 02:41:06;;;;;;;1.40;1.40;;;;;;;1.92;66.36;99949.19;103580;1276;110499;-68
2022/02/15 02:43:34;;;;;;;1.30;1.30;;;;;;;1.94;66.78;99948.84;103481;1276;139307;-67
2022/02/15 02:46:02;;;;;;;1.40;1.40;;;;;;;1.95;66.66;99949.72;103516;1276;108969;-67
2022/02/15 02:48:30;;;;;;;1.30;1.30;;;;;;;1.92;66.83;99949.55;103622;1276;95763;-68
2022/02/15 02:50:59;;;;;;;1.50;1.50;;;;;;;1.89;66.68;99945.34;103482;1276;138085;-67
2022/02/15 02:53:27;;;;;;;1.40;1.40;;;;;;;1.83;67.11;99945.85;103548;1276;109649;-66
2022/02/15 02:55:55;;;;;;;1.30;1.30;;;;;;;1.82;67.10;99944.98;103478;1276;139503;-68
2022/02/15 02:58:23;;;;;;;1.30;1.30;;;;;;;1.82;66.89;99938.67;103565;1276;108934;-67
2022/02/15 03:00:51;;;;;;;1.40;1.40;;;;;;;1.82;67.19;99943.40;103571;1276;95404;-67
2022/02/15 03:03:35;;;;;;;1.40;1.40;;;;;;;1.82;67.31;99939.90;103503;1276;138062;-67
2022/02/15 03:06:07;;;;;;;1.40;1.40;;;;;;;1.83;67.36;99939.39;103588;1277;109624;-67
2022/02/15 03:08:35;;;;;;;1.40;1.40;;;;;;;1.85;67.39;99941.66;103469;1276;138722;-67
2022/02/15 03:11:04;;;;;;;1.30;1.30;;;;;;;1.83;67.65;99940.26;103640;1276;108134;-66
2022/02/15 03:13:36;;;;;;;1.40;1.40;;;;;;;1.81;67.83;99942.52;103407;1276;138328;-67
2022/02/15 03:16:06;;;;;;;1.30;1.30;;;;;;;1.80;67.73;99941.13;103611;1276;95762;-67
2022/02/15 03:18:34;;;;;;;1.30;1.30;;;;;;;1.83;67.56;99940.08;103602;1276;109767;-68
2022/02/15 03:21:07;;;;;;;1.40;1.40;;;;;;;1.91;67.44;99940.96;103501;1276;138164;-68
2022/02/15 03:23:36;;;;;;;1.40;1.40;;;;;;;1.95;67.36;99940.61;103767;1276;109681;-67
2022/02/15 03:26:05;;;;;;;1.50;1.50;;;;;;;1.93;67.62;99941.84;103381;1276;138291;-67
2022/02/15 03:28:33;;;;;;;1.40;1.40;;;;;;;1.89;67.56;99939.73;103595;1276;95705;-67
2022/02/15 03:31:02;;;;;;;1.40;1.40;;;;;;;1.88;67.87;99941.48;103623;1276;109818;-66
2022/02/15 03:33:32;;;;;;;1.50;1.50;;;;;;;1.84;68.14;99941.83;103461;1275;137915;-67
2022/02/15 03:36:02;;;;;;;1.60;1.60;;;;;;;1.80;68.07;99943.05;103684;1276;108915;-66
2022/02/15 03:38:31;;;;;;;1.50;1.50;;;;;;;1.77;68.12;99940.25;103485;1276;138240;-67
2022/02/15 03:43:54;;;;;;;1.30;1.30;;;;;;;1.81;68.36;99940.42;103481;1276;139119;-67
2022/02/15 03:46:26;;;;;;;1.50;1.50;;;;;;;1.83;67.97;99942.71;103588;1276;99392;-68
2022/02/15 03:48:54;;;;;;;1.50;1.50;;;;;;;1.79;68.24;99946.36;103518;1276;108645;-67
2022/02/15 03:51:23;;;;;;;1.40;1.40;;;;;;;1.76;68.56;99946.02;103528;1276;138982;-66
2022/02/15 03:53:54;;;;;;;1.30;1.30;;;;;;;1.77;68.55;99945.68;103644;1276;95686;-67
2022/02/15 03:56:22;;;;;;;1.30;1.30;;;;;;;1.79;68.49;99947.41;103629;1275;138700;-67
2022/02/15 03:58:50;;;;;;;1.50;1.50;;;;;;;1.76;68.52;99944.79;103569;1276;100031;-68
2022/02/15 04:01:19;;;;;;;1.50;1.50;;;;;;;1.74;68.64;99941.80;103487;1275;138724;-67
2022/02/15 04:03:48;;;;;;;1.50;1.50;;;;;;;1.75;68.71;99939.36;103577;1276;95126;-68
2022/02/15 04:06:16;;;;;;;1.40;1.40;;;;;;;1.73;68.86;99944.61;103566;1276;96511;-67
2022/02/15 04:08:44;;;;;;;1.40;1.40;;;;;;;1.71;69.15;99946.52;103526;1276;137732;-66
2022/02/15 04:11:12;;;;;;;1.50;1.50;;;;;;;1.69;68.91;99946.69;103542;1276;99459;-67
2022/02/15 04:13:40;;;;;;;1.40;1.40;;;;;;;1.71;69.22;99941.63;103535;1276;138430;-67
2022/02/15 04:16:10;;;;;;;1.30;1.30;;;;;;;1.75;68.65;99940.58;103569;1276;95235;-68
2022/02/15 04:18:43;;;;;;;1.30;1.30;;;;;;;1.77;68.90;99939.19;103779;1277;95353;-67
2022/02/15 04:21:14;;;;;;;1.40;1.40;;;;;;;1.75;68.90;99941.65;103641;1276;139051;-68
2022/02/15 04:23:42;;;;;;;1.40;1.40;;;;;;;1.73;69.00;99937.77;103520;1276;99516;-66
2022/02/15 04:26:10;;;;;;;1.30;1.30;;;;;;;1.79;68.65;99944.09;103457;1276;137954;-68
2022/02/15 04:28:41;;;;;;;1.30;1.30;;;;;;;1.79;68.70;99942.52;103576;1275;95655;-68
2022/02/15 04:31:23;;;;;;;1.40;1.40;;;;;;;1.72;69.15;99942.67;103424;1276;137843;-68
2022/02/15 04:33:51;;;;;;;1.40;1.40;;;;;;;1.70;69.18;99940.57;103458;1276;110532;-65
2022/02/15 04:36:20;;;;;;;1.40;1.40;;;;;;;1.76;69.02;99943.39;103515;1276;99354;-67
2022/02/15 04:38:52;;;;;;;1.30;1.30;;;;;;;1.75;69.25;99943.92;103325;1276;138291;-67
2022/02/15 04:41:21;;;;;;;1.50;1.50;;;;;;;1.71;69.01;99941.63;104152;1276;95295;-66
2022/02/15 04:43:50;;;;;;;1.40;1.40;;;;;;;1.67;69.47;99945.46;103361;1276;139073;-66
2022/02/15 04:46:23;;;;;;;1.40;1.40;;;;;;;1.63;69.65;99940.20;103519;1276;109873;-67
2022/02/15 04:48:52;;;;;;;1.40;1.40;;;;;;;1.60;69.79;99940.73;103478;1277;99772;-67
2022/02/15 04:51:20;;;;;;;1.50;1.50;;;;;;;1.55;70.21;99941.05;103437;1275;138344;-66
2022/02/15 04:53:50;;;;;;;1.50;1.50;;;;;;;1.50;70.39;99938.59;103570;1276;96974;-66
2022/02/15 04:56:18;;;;;;;1.40;1.40;;;;;;;1.51;69.97;99939.65;103624;1276;138384;-66
2022/02/15 04:58:46;;;;;;;1.30;1.30;;;;;;;1.59;70.12;99945.80;103576;1275;109827;-67
2022/02/15 05:01:16;;;;;;;1.30;1.30;;;;;;;1.64;70.25;99945.46;103588;1276;99455;-66
2022/02/15 05:04:48;;;;;;;1.40;1.40;;;;;;;1.64;69.69;99947.73;103534;1276;107858;-66
2022/02/15 05:06:58;;;;;;;1.40;1.40;;;;;;;1.66;69.70;99944.94;103564;1276;95256;-66
2022/02/15 05:09:27;;;;;;;1.40;1.40;;;;;;;1.70;69.40;99941.61;103553;1276;137947;-66
2022/02/15 05:11:56;;;;;;;1.30;1.30;;;;;;;1.77;69.29;99944.80;103729;1276;109794;-67
2022/02/15 05:14:24;;;;;;;1.50;1.50;;;;;;;1.77;69.46;99939.02;103518;1276;138427;-67
2022/02/15 05:16:53;;;;;;;1.40;1.40;;;;;;;1.79;69.24;99936.74;103581;1276;108980;-67
2022/02/15 05:19:24;;;;;;;1.20;1.20;;;;;;;1.83;69.06;99934.82;103590;1276;95785;-67
2022/02/15 05:22:00;;;;;;;1.30;1.30;;;;;;;1.82;69.58;99933.59;103466;1275;137427;-67
2022/02/15 05:24:31;;;;;;;1.50;1.50;;;;;;;1.82;69.33;99936.06;103542;1276;110054;-67
2022/02/15 05:27:01;;;;;;;1.40;1.40;;;;;;;1.85;69.17;99940.25;103595;1276;139350;-67
2022/02/15 05:29:37;;;;;;;1.20;1.20;;;;;;;1.96;68.85;99938.88;103517;1276;109214;-67
2022/02/15 05:32:34;;;;;;;1.50;1.50;;;;;;;1.94;68.98;99941.50;103328;1276;137823;-67
2022/02/15 05:35:08;;;;;;;1.30;1.30;;;;;;;1.92;68.77;99940.61;103639;1276;95661;-67
2022/02/15 05:37:37;;;;;;;1.30;1.30;;;;;;;1.94;68.35;99946.76;103918;1276;109685;-68
2022/02/15 05:40:07;;;;;;;1.30;1.30;;;;;;;2.07;68.39;99948.16;103502;1276;138384;-67
2022/02/15 05:42:43;;;;;;;1.30;1.30;;;;;;;2.14;67.93;99953.07;103560;1276;109125;-68
2022/02/15 05:45:12;;;;;;;1.40;1.40;;;;;;;2.09;67.48;99955.70;103737;1276;138142;-68
2022/02/15 05:47:54;;;;;;;1.30;1.30;;;;;;;2.01;68.02;99955.34;103535;1277;96700;-67
2022/02/15 05:53:11;;;;;;;1.30;1.30;;;;;;;1.87;68.21;99951.29;103639;1276;99372;-67
2022/02/15 05:55:39;;;;;;;1.40;1.40;;;;;;;1.78;68.57;99947.41;103635;1276;108938;-67
2022/02/15 05:58:07;;;;;;;1.40;1.40;;;;;;;1.72;68.92;99950.55;103720;1276;138778;-67
2022/02/15 06:00:36;;;;;;;1.40;1.40;;;;;;;1.73;68.63;99952.30;103552;1276;95828;-67
2022/02/15 06:04:09;;;;;;;1.30;1.30;;;;;;;1.73;68.91;99948.63;103515;1276;138027;-67
2022/02/15 06:05:52;;;;;;;1.40;1.40;;;;;;;1.69;68.83;99955.80;103622;1276;97845;-67
2022/02/15 06:08:24;;;;;;;1.70;1.70;;;;;;;1.64;69.18;99960.52;103510;1276;138765;-66
2022/02/15 06:10:55;;;;;;;1.30;1.30;;;;;;;1.63;69.16;99959.63;103635;1276;96112;-67
2022/02/15 06:13:32;;;;;;;1.30;1.30;;;;;;;1.62;69.16;99960.50;103697;1276;95122;-69
2022/02/15 06:16:05;;;;;;;1.40;1.40;;;;;;;1.59;69.37;99961.36;103459;1276;137582;-67
2022/02/15 06:18:59;;;;;;;1.50;1.50;;;;;;;1.55;69.61;99958.57;103591;1276;99386;-67
2022/02/15 06:21:32;;;;;;;1.40;1.40;;;;;;;1.57;69.63;99952.61;103558;1276;138316;-67
2022/02/15 06:24:03;;;;;;;1.50;1.50;;;;;;;1.62;69.49;99947.55;103588;1276;95311;-67
2022/02/15 06:27:01;;;;;;;1.40;1.40;;;;;;;1.63;69.39;99954.73;103540;1276;138829;-69
2022/02/15 06:29:30;;;;;;;1.40;1.40;;;;;;;1.62;69.74;99953.50;103643;1276;109659;-67
2022/02/15 06:32:03;;;;;;;1.50;1.50;;;;;;;1.66;69.41;99957.89;103672;1276;138656;-67
2022/02/15 06:34:31;;;;;;;1.40;1.40;;;;;;;1.73;69.41;99956.15;103648;1276;109576;-69
2022/02/15 06:37:04;;;;;;;1.40;1.40;;;;;;;1.72;69.17;99952.65;104239;1276;95734;-66
2022/02/15 06:39:37;;;;;;;1.30;1.30;;;;;;;1.68;69.33;99952.82;103462;1276;139307;-68
2022/02/15 06:42:07;;;;;;;1.30;1.30;;;;;;;1.71;69.39;99951.42;103773;1276;109823;-66
2022/02/15 06:44:40;;;;;;;1.40;1.40;;;;;;;1.73;69.44;99948.98;103477;1276;138554;-67
2022/02/15 06:47:08;;;;;;;1.30;1.30;;;;;;;1.71;69.40;99950.55;103647;1276;108779;-67
2022/02/15 06:49:36;;;;;;;1.50;1.50;;;;;;;1.68;69.89;99947.21;103570;1276;96467;-68
2022/02/15 06:52:40;;;;;;;1.30;1.30;;;;;;;1.71;69.76;99953.36;103246;1282;95755;-66
2022/02/15 06:55:54;;;;;;;1.40;1.40;;;;;;;1.79;69.33;99955.12;103649;1275;109736;-67
2022/02/15 06:58:28;;;;;;;1.30;1.30;;;;;;;1.86;69.51;99954.79;103583;1276;138037;-67
2022/02/15 07:00:56;;;;;;;1.30;1.30;;;;;;;1.91;69.19;99954.63;103645;1276;108383;-66
2022/02/15 07:03:24;;;;;;;1.40;1.40;;;;;;;1.92;69.42;99959.53;103546;1276;138438;-67
2022/02/15 07:05:54;;;;;;;1.40;1.40;;;;;;;1.96;69.27;99956.73;103653;1276;95302;-67
2022/02/15 07:08:23;;;;;;;1.30;1.30;;;;;;;1.98;69.20;99958.31;103510;1276;137983;-65
2022/02/15 07:10:54;;;;;;;1.30;1.30;;;;;;;1.97;68.83;99955.66;103653;1276;99477;-66
2022/02/15 07:13:26;;;;;;;1.20;1.20;;;;;;;2.04;69.30;99956.21;103913;1276;109403;-67
2022/02/15 07:15:57;;;;;;;1.30;1.30;;;;;;;2.15;69.07;99964.29;103537;1276;139054;-67
2022/02/15 07:18:27;;;;;;;1.30;1.30;;;;;;;2.27;69.00;99960.79;103605;1276;95973;-67
2022/02/15 07:21:13;;;;;;;1.20;1.20;;;;;;;2.40;68.59;99959.73;103580;1276;138002;-67
2022/02/15 07:24:21;;;;;;;1.20;1.20;;;;;;;2.45;68.42;99963.06;103071;1282;99976;-67
2022/02/15 07:27:26;;;;;;;1.40;1.40;;;;;;;2.46;67.75;99957.28;102561;1288;138944;-67
2022/02/15 07:29:57;;;;;;;1.20;1.20;;;;;;;2.47;67.87;99952.91;103353;1279;95366;-66
2022/02/15 07:32:47;;;;;;;1.20;1.20;;;;;;;2.53;67.88;99953.78;103486;1277;138466;-68
2022/02/15 07:35:17;;;;;;;1.20;1.20;;;;;;;2.58;67.85;99955.35;103738;1276;109794;-66
2022/02/15 07:37:47;;;;;;;1.30;1.30;;;;;;;2.60;67.41;99966.03;103586;1276;99862;-68
2022/02/15 07:40:22;;;;;;;1.30;1.30;;;;;;;2.69;67.68;99964.63;103522;1276;138698;-67
2022/02/15 07:42:51;;;;;;;1.20;1.20;;;;;;;2.98;67.12;99962.81;103795;1276;95215;-69
2022/02/15 07:45:20;;;;;;;1.10;1.10;;;;;;;3.25;66.14;99968.71;103555;1276;138184;-67
2022/02/15 07:47:51;;;;;;;1.20;1.20;;;;;;;3.63;65.48;99961.88;103721;1276;109719;-65
2022/02/15 07:50:21;;;;;;;1.10;1.10;;;;;;;3.78;64.48;99961.80;103565;1276;138318;-67
2022/02/15 07:52:54;;;;;;;1.20;1.20;;;;;;;3.80;64.19;99961.27;103738;1276;109783;-67
2022/02/15 07:55:22;;;;;;;1.00;1.00;;;;;;;3.87;63.99;99958.23;103863;1276;95224;-66
2022/02/15 07:57:50;;;;;;;1.00;1.00;;;;;;;3.90;63.90;99955.77;103545;1276;138116;-65
2022/02/15 08:00:21;;;;;;;1.10;1.10;;;;;;;3.94;63.93;99955.20;103668;1276;109760;-67
2022/02/15 08:02:52;;;;;;;1.00;1.00;;;;;;;3.97;63.83;99957.47;103833;1276;138037;-67
2022/02/15 08:05:20;;;;;;;1.00;1.00;;;;;;;4.03;63.73;99960.77;103583;1276;109667;-67
2022/02/15 08:07:54;;;;;;;1.00;1.00;;;;;;;4.11;63.51;99959.48;103593;1276;95304;-68
2022/02/15 08:10:24;;;;;;;0.90;0.90;;;;;;;4.19;63.72;99956.25;103590;1276;138770;-67
2022/02/15 08:12:57;;;;;;;1.00;1.00;;;;;;;4.30;63.71;99959.52;103719;1276;108247;-69
2022/02/15 08:15:32;;;;;;;1.00;1.00;;;;;;;4.40;63.27;99958.73;103769;1276;138430;-67
2022/02/15 08:18:01;;;;;;;1.00;1.00;;;;;;;4.43;62.79;99957.84;103940;1276;108735;-66
2022/02/15 08:20:31;;;;;;;1.00;1.00;;;;;;;4.50;62.80;99963.39;103689;1276;138307;-65
2022/02/15 08:23:00;;;;;;;1.00;1.00;;;;;;;4.49;62.19;99964.98;103857;1276;95220;-66
2022/02/15 08:25:28;;;;;;;1.00;1.00;;;;;;;4.55;62.48;99958.08;103609;1276;109844;-67
2022/02/15 08:27:57;;;;;;;1.00;1.00;;;;;;;4.72;62.54;99958.64;103858;1276;138984;-68
2022/02/15 08:30:26;;;;;;;0.90;0.90;;;;;;;4.98;61.93;99961.01;103813;1276;107670;-66
2022/02/15 08:32:55;;;;;;;0.90;0.90;;;;;;;5.16;61.37;99960.29;103465;1276;138817;-67
2022/02/15 08:35:23;;;;;;;0.90;0.90;;;;;;;5.29;60.66;99958.91;103677;1276;95453;-68
2022/02/15 08:37:52;;;;;;;0.90;0.90;;;;;;;5.30;60.37;99959.08;103636;1276;109654;-67
2022/02/15 08:40:21;;;;;;;0.90;0.90;;;;;;;5.39;60.38;99957.20;103543;1276;138203;-67
2022/02/15 08:42:49;;;;;;;1.00;1.00;;;;;;;5.52;60.41;99958.27;103598;1276;108929;-67
2022/02/15 08:45:17;;;;;;;0.90;0.90;;;;;;;5.60;59.90;99956.23;103389;1276;138586;-67
2022/02/15 08:47:46;;;;;;;0.90;0.90;;;;;;;5.70;59.73;99949.05;103563;1276;95273;-67
2022/02/15 08:50:16;;;;;;;0.80;0.80;;;;;;;5.83;59.57;99949.77;103437;1276;137062;-67
2022/02/15 08:52:46;;;;;;;0.90;0.90;;;;;;;5.98;59.45;99945.34;103667;1276;99267;-67
2022/02/15 08:55:14;;;;;;;0.80;0.80;;;;;;;6.05;58.68;99941.71;103580;1276;108939;-68
2022/02/15 08:57:42;;;;;;;0.80;0.80;;;;;;;6.11;58.78;99943.39;103489;1276;137783;-67
2022/02/15 09:00:14;;;;;;;0.90;0.90;;;;;;;6.13;58.72;99936.66;103667;1276;95463;-67
2022/02/15 09:02:42;;;;;;;0.80;0.80;;;;;;;6.11;58.65;99939.87;103758;1274;137788;-67
2022/02/15 09:05:10;;;;;;;0.90;0.90;;;;;;;6.11;58.74;99946.22;103551;1276;99447;-66
2022/02/15 09:07:38;;;;;;;0.80;0.80;;;;;;;6.11;58.63;99946.73;103551;1276;109278;-66
2022/02/15 09:10:07;;;;;;;0.80;0.80;;;;;;;6.15;58.62;99951.79;103459;1276;137735;-67
2022/02/15 09:12:34;;;;;;;0.80;0.80;;;;;;;6.19;58.54;99957.02;103588;1276;95552;-67
2022/02/15 09:15:06;;;;;;;0.80;0.80;;;;;;;6.22;58.29;99954.86;103442;1276;138875;-67
2022/02/15 09:17:39;;;;;;;0.90;0.90;;;;;;;6.25;58.44;99959.02;103608;1276;99393;-67
2022/02/15 09:20:10;;;;;;;0.90;0.90;;;;;;;6.33;58.38;99959.09;103530;1276;108683;-66
2022/02/15 09:22:39;;;;;;;0.90;0.90;;;;;;;6.38;58.28;99965.89;103397;1276;137702;-67
2022/02/15 09:25:08;;;;;;;0.90;0.90;;;;;;;6.42;58.23;99973.05;103534;1276;95328;-67
2022/02/15 09:27:36;;;;;;;0.80;0.80;;;;;;;6.51;58.35;99975.89;103474;1276;140784;-68
2022/02/15 09:30:05;;;;;;;0.80;0.80;;;;;;;6.57;58.09;99979.86;103578;1276;99398;-67
2022/02/15 09:32:33;;;;;;;0.80;0.80;;;;;;;6.64;58.26;99984.70;103492;1276;137862;-68
2022/02/15 09:35:01;;;;;;;0.80;0.80;;;;;;;6.67;58.03;99986.21;103521;1276;95252;-67
2022/02/15 09:37:29;;;;;;;0.70;0.70;;;;;;;6.69;57.91;99986.18;103667;1276;95487;-69
2022/02/15 09:39:59;;;;;;;0.80;0.80;;;;;;;6.68;58.11;99984.98;103409;1276;138126;-67
2022/02/15 09:42:29;;;;;;;0.80;0.80;;;;;;;6.67;58.18;99980.94;103434;1276;99455;-66
2022/02/15 09:44:59;;;;;;;0.80;0.80;;;;;;;6.67;58.30;99982.17;103361;1276;137866;-68
2022/02/15 09:47:27;;;;;;;0.70;0.70;;;;;;;6.70;58.52;99981.94;103640;1276;95236;-67
2022/02/15 09:49:55;;;;;;;0.80;0.80;;;;;;;6.74;58.21;99979.05;103608;1276;95843;-67
2022/02/15 09:52:24;;;;;;;0.70;0.70;;;;;;;6.79;58.62;99971.18;103491;1276;138047;-68
2022/02/15 09:54:55;;;;;;;0.70;0.70;;;;;;;6.91;58.24;99967.10;103662;1276;99879;-68
2022/02/15 09:57:24;;;;;;;0.70;0.70;;;;;;;6.90;58.14;99964.83;103801;1276;138102;-67
2022/02/15 09:59:53;;;;;;;0.70;0.70;;;;;;;6.86;57.70;99969.48;103595;1276;96530;-67
2022/02/15 10:02:24;;;;;;;0.70;0.70;;;;;;;6.82;57.69;99973.42;103537;1276;137842;-67
2022/02/15 10:04:54;;;;;;;0.70;0.70;;;;;;;6.83;58.11;99972.36;103601;1276;109201;-67
2022/02/15 10:07:23;;;;;;;0.70;0.70;;;;;;;6.83;57.63;99971.14;103645;1277;99415;-67
2022/02/15 10:09:53;;;;;;;0.70;0.70;;;;;;;6.81;57.92;99973.45;103430;1276;138287;-68
2022/02/15 10:12:24;;;;;;;0.70;0.70;;;;;;;6.80;57.88;99973.98;103684;1276;95299;-67
2022/02/15 10:14:55;;;;;;;0.70;0.70;;;;;;;6.84;57.87;99980.45;103515;1278;138404;-67
2022/02/15 10:17:24;;;;;;;0.70;0.70;;;;;;;6.92;57.88;99976.61;103582;1276;109827;-67
2022/02/15 10:19:54;;;;;;;0.70;0.70;;;;;;;7.00;57.53;99983.17;103541;1276;97872;-66
2022/02/15 10:22:24;;;;;;;0.70;0.70;;;;;;;7.00;57.73;99981.59;103491;1276;137727;-66
2022/02/15 10:25:00;;;;;;;0.70;0.70;;;;;;;7.02;57.30;99979.08;103575;1276;95590;-67
2022/02/15 10:27:30;;;;;;;0.70;0.70;;;;;;;6.94;57.56;99974.28;103971;1276;137954;-67
2022/02/15 10:29:58;;;;;;;0.70;0.70;;;;;;;6.90;57.97;99973.30;103800;1276;109874;-66
2022/02/15 10:32:26;;;;;;;0.70;0.70;;;;;;;6.90;58.31;99961.12;103481;1276;138028;-67
2022/02/15 10:34:56;;;;;;;0.70;0.70;;;;;;;6.89;58.00;99961.13;103579;1276;109340;-65
2022/02/15 10:37:32;;;;;;;0.60;0.60;;;;;;;6.90;58.24;99965.18;103601;1276;95235;-67
2022/02/15 10:40:06;;;;;;;0.80;0.80;;;;;;;6.95;58.66;99965.26;103611;1276;137770;-67
2022/02/15 10:42:36;;;;;;;0.70;0.70;;;;;;;7.01;57.73;99969.91;104223;1276;110443;-66
2022/02/15 10:45:08;;;;;;;0.80;0.80;;;;;;;7.24;57.70;99966.64;103479;1276;137865;-66
2022/02/15 10:47:38;;;;;;;0.70;0.70;;;;;;;7.59;57.66;99958.36;103613;1276;108847;-65
2022/02/15 10:50:09;;;;;;;0.70;0.70;;;;;;;7.74;56.93;99954.16;103581;1276;95743;-66
2022/02/15 10:52:38;;;;;;;0.60;0.60;;;;;;;7.73;56.58;99951.16;103631;1276;137570;-67
2022/02/15 10:55:07;;;;;;;0.60;0.60;;;;;;;7.69;55.57;99941.35;103531;1276;108762;-66
2022/02/15 10:57:36;;;;;;;0.60;0.60;;;;;;;7.61;55.87;99935.55;103507;1276;137724;-67
2022/02/15 11:00:13;;;;;;;0.60;0.60;;;;;;;7.62;56.38;99937.78;103665;1276;108827;-67
2022/02/15 11:02:41;;;;;;;0.70;0.70;;;;;;;7.66;56.38;99938.06;103561;1276;137971;-66
2022/02/15 11:05:11;;;;;;;0.60;0.60;;;;;;;7.70;56.04;99946.63;103720;1276;95960;-67
2022/02/15 11:07:40;;;;;;;0.70;0.70;;;;;;;7.65;55.23;99951.17;104019;1276;109893;-66
2022/02/15 11:10:31;;;;;;;0.60;0.60;;;;;;;7.66;55.59;99957.13;103505;1276;138252;-66
2022/02/15 11:13:01;;;;;;;0.60;0.60;;;;;;;7.83;55.21;99964.36;103597;1276;108829;-66
2022/02/15 11:15:33;;;;;;;0.70;0.70;;;;;;;7.88;54.64;99968.49;103688;1274;139362;-66
2022/02/15 11:18:04;;;;;;;0.60;0.60;;;;;;;7.96;54.99;99969.39;103597;1276;95641;-66
2022/02/15 11:20:50;;;;;;;0.70;0.70;;;;;;;8.04;54.57;99968.33;103622;1276;137797;-66
2022/02/15 11:23:23;;;;;;;0.60;0.60;;;;;;;8.09;54.75;99974.40;103619;1276;99644;-66
2022/02/15 11:26:17;;;;;;;0.60;0.60;;;;;;;8.15;54.98;99981.17;103799;1276;108830;-67
2022/02/15 11:28:52;;;;;;;0.60;0.60;;;;;;;8.22;54.05;99982.95;103449;1276;137578;-67
2022/02/15 11:31:46;;;;;;;0.70;0.70;;;;;;;8.21;53.79;99982.43;103651;1276;95311;-66
2022/02/15 11:34:14;;;;;;;0.70;0.70;;;;;;;8.25;53.13;99973.66;103498;1276;137543;-66
2022/02/15 11:36:46;;;;;;;0.60;0.60;;;;;;;8.26;53.38;99981.27;103587;1276;99279;-66
2022/02/15 11:39:21;;;;;;;0.60;0.60;;;;;;;8.31;53.17;99984.50;103831;1276;137600;-67
2022/02/15 11:41:54;;;;;;;0.60;0.60;;;;;;;8.30;52.71;99983.99;103565;1276;95654;-66
2022/02/15 11:44:29;;;;;;;0.60;0.60;;;;;;;8.29;53.33;99991.98;103356;1276;137825;-65
2022/02/15 11:47:23;;;;;;;0.60;0.60;;;;;;;8.35;53.36;99994.48;103567;1276;109711;-66
2022/02/15 11:50:00;;;;;;;0.60;0.60;;;;;;;8.37;53.22;99990.55;103731;1276;99436;-66
2022/02/15 11:52:29;;;;;;;0.60;0.60;;;;;;;8.36;53.20;99992.86;103390;1276;138345;-67
2022/02/15 11:55:05;;;;;;;0.60;0.60;;;;;;;8.37;53.39;99990.56;103535;1276;95647;-67